Concerto — JJ3855 — position and weather

sailwx.info

Track history (hours):
 
Tides and Currents Weather Stations Pressure Air Temp Water Temp Dewpoint Dewpoint Depression Visibility Wind Speed Wind Dir Waves Ship Positions

Concerto

Last reported at 2016-May-05 11:33 UTC. Time now 2016-May-05 19:57 UTC.
Position N 34°38' E 135°10'.

Length 74 m; draft 3 m.

Type: Passenger vessel. MMSI: 431000448.

Date/timePositionNaut miles runAvg speedWind from/ knotsBaromVisibWave heightAir tempDewpointWater temp
2016-May-05 11:33N 34°38' E 135°10'1 0.7
2016-May-05 10:33N 34°38' E 135°09'3 3.1
2016-May-05 09:31N 34°41' E 135°11'5 5.5
2016-May-05 08:33N 34°37' E 135°06'5 4.9
2016-May-05 07:28N 34°41' E 135°11'3 2.9
2016-May-05 06:33N 34°38' E 135°10'3 2.6
2016-May-05 05:33N 34°41' E 135°11'2 1.9
2016-May-05 04:33N 34°39' E 135°11'1 1.5
2016-May-05 03:33N 34°38' E 135°10'3 3.0
2016-May-05 02:32N 34°41' E 135°11'0 0.0
2016-May-04 12:03N 34°41' E 135°11'3 6.4
2016-May-04 11:33N 34°38' E 135°11'1 0.6
2016-May-04 10:33N 34°38' E 135°10'3 2.7
2016-May-04 09:30N 34°41' E 135°11'4 4.1
2016-May-04 08:33N 34°37' E 135°10'4 3.9
2016-May-04 07:33N 34°41' E 135°11'3 2.6
2016-May-04 06:33N 34°38' E 135°11'3 2.6
2016-May-04 05:33N 34°41' E 135°11'1 1.4
2016-May-04 04:34N 34°39' E 135°11'1 1.3
2016-May-04 03:33N 34°39' E 135°10'2 2.3
2016-May-04 02:32N 34°41' E 135°11'0 0.0
2016-May-04 01:26N 34°41' E 135°11'0 0.0
2016-May-04 00:32N 34°41' E 135°11'0 0.0
2016-May-03 23:32N 34°41' E 135°11'0 0.0
2016-May-03 22:32N 34°41' E 135°11'0 0.0
2016-May-03 21:32N 34°41' E 135°11'0 0.0
2016-May-03 20:32N 34°41' E 135°11'0 0.0
2016-May-03 19:26N 34°41' E 135°11'0 0.0
2016-May-03 18:32N 34°41' E 135°11'0 0.0
2016-May-03 17:32N 34°41' E 135°11'0 0.0
2016-May-03 16:32N 34°41' E 135°11'0 0.0
2016-May-03 15:32N 34°41' E 135°11'0 0.0
2016-May-03 14:32N 34°41' E 135°11'0 0.0
2016-May-03 13:32N 34°41' E 135°11'0 0.0
2016-May-03 12:32N 34°41' E 135°11'1 0.7
2016-May-03 11:33N 34°40' E 135°12'0 0.2
2016-May-03 10:33N 34°40' E 135°12'1 0.7
2016-May-03 09:26N 34°41' E 135°11'1 0.7
2016-May-03 08:33N 34°40' E 135°11'1 0.6
2016-May-03 07:33N 34°41' E 135°11'3 2.6
2016-May-03 06:33N 34°38' E 135°11'3 2.6
2016-May-03 05:33N 34°41' E 135°11'1 0.8
2016-May-03 04:33N 34°40' E 135°11'1 1.5
2016-May-03 03:33N 34°39' E 135°11'2 2.1
2016-May-03 02:31N 34°41' E 135°11'0 0.0
2016-May-03 01:31N 34°41' E 135°11'0 0.0
2016-May-03 00:31N 34°41' E 135°11'0 0.0
2016-May-02 23:31N 34°41' E 135°11'0 0.0
2016-May-02 22:31N 34°41' E 135°11'0 0.0
2016-May-02 21:25N 34°41' E 135°11'0 0.0
2016-May-02 20:31N 34°41' E 135°11'0 0.0
2016-May-02 19:31N 34°41' E 135°11'0 0.0
2016-May-02 18:25N 34°41' E 135°11'0 0.0
2016-May-02 17:31N 34°41' E 135°11'0 0.0
2016-May-02 16:31N 34°41' E 135°11'0 0.0
2016-May-02 15:31N 34°41' E 135°11'0 0.0
2016-May-02 14:31N 34°41' E 135°11'0 0.0
2016-May-02 13:31N 34°41' E 135°11'0 0.0
2016-May-02 12:31N 34°41' E 135°11'3 3.3
2016-May-02 11:33N 34°38' E 135°10'1 0.7
2016-May-02 10:33N 34°38' E 135°09'3 3.0
2016-May-02 09:28N 34°41' E 135°11'5 5.6
2016-May-02 08:33N 34°37' E 135°07'5 4.7
2016-May-02 07:28N 34°41' E 135°11'3 2.8
2016-May-02 06:34N 34°38' E 135°11'3 2.5
2016-May-02 05:33N 34°41' E 135°11'2 1.6
2016-May-02 04:33N 34°39' E 135°11'2 2.1
2016-May-02 03:33N 34°38' E 135°09'3 3.1
2016-May-02 02:29N 34°41' E 135°11'0 0.0
2016-May-02 01:29N 34°41' E 135°11'0 0.0
2016-May-02 00:29N 34°41' E 135°11'0 0.0
2016-May-01 23:29N 34°41' E 135°11'0 0.0
2016-May-01 22:29N 34°41' E 135°11'0 0.0
2016-May-01 21:11N 34°41' E 135°11'0 0.0
2016-May-01 20:29N 34°41' E 135°11'0 0.0
2016-May-01 19:29N 34°41' E 135°11'0 0.0
2016-May-01 18:29N 34°41' E 135°11'0 0.0
2016-May-01 17:29N 34°41' E 135°11'0 0.0
2016-May-01 16:29N 34°41' E 135°11'0 0.0
2016-May-01 15:29N 34°41' E 135°11'0 0.0
2016-May-01 14:29N 34°41' E 135°11'0 0.0
2016-May-01 13:29N 34°41' E 135°11'0 0.0
2016-May-01 12:29N 34°41' E 135°11'3 2.8
2016-May-01 11:33N 34°38' E 135°11'1 0.9
2016-May-01 10:33N 34°38' E 135°10'3 2.6
2016-May-01 09:28N 34°41' E 135°11'5 6.0
2016-May-01 08:33N 34°37' E 135°06'5 5.4
2016-May-01 07:33N 34°41' E 135°11'2 2.3
2016-May-01 06:33N 34°38' E 135°11'2 2.3
2016-May-01 05:33N 34°41' E 135°11'2 1.8
2016-May-01 04:33N 34°39' E 135°11'2 1.9
2016-May-01 03:33N 34°38' E 135°09'3 2.9
2016-May-01 02:28N 34°41' E 135°11'0 0.0
2016-May-01 01:28N 34°41' E 135°11'0 0.0
2016-May-01 00:28N 34°41' E 135°11'0 0.0
2016-Apr-30 23:28N 34°41' E 135°11'0 0.0
2016-Apr-30 22:28N 34°41' E 135°11'0 0.0
2016-Apr-30 21:28N 34°41' E 135°11'0 0.0
2016-Apr-30 20:28N 34°41' E 135°11'0 0.0
2016-Apr-30 19:28N 34°41' E 135°11'0 0.0
2016-Apr-30 18:16N 34°41' E 135°11'0 0.0
2016-Apr-30 17:28N 34°41' E 135°11'0 0.0
2016-Apr-30 16:28N 34°41' E 135°11'0 0.0
2016-Apr-30 15:28N 34°41' E 135°11'0 0.0
2016-Apr-30 14:28N 34°41' E 135°11'0 0.0
2016-Apr-30 13:10N 34°41' E 135°11'0 0.0
2016-Apr-30 12:22N 34°41' E 135°11'3 4.2
2016-Apr-30 11:33N 34°37' E 135°11'1 0.8
2016-Apr-30 10:33N 34°38' E 135°10'3 2.9
2016-Apr-30 09:28N 34°41' E 135°11'5 5.5
2016-Apr-30 08:33N 34°37' E 135°07'5 5.0
2016-Apr-30 07:33N 34°41' E 135°11'2 2.5
2016-Apr-30 06:33N 34°38' E 135°11'2 2.5
2016-Apr-30 05:33N 34°41' E 135°11'1 1.5
2016-Apr-30 04:34N 34°39' E 135°11'2 2.3
2016-Apr-30 03:33N 34°38' E 135°09'3 2.9
2016-Apr-30 02:23N 34°41' E 135°11'0 0.0
2016-Apr-30 01:29N 34°41' E 135°11'0 0.0
2016-Apr-30 00:29N 34°41' E 135°11'0 0.0
2016-Apr-29 23:29N 34°41' E 135°11'0 0.0
2016-Apr-29 22:29N 34°41' E 135°11'0 0.0
2016-Apr-29 21:23N 34°41' E 135°11'0 0.0
2016-Apr-29 20:29N 34°41' E 135°11'0 0.0
2016-Apr-29 19:23N 34°41' E 135°11'0 0.0
2016-Apr-29 18:29N 34°41' E 135°11'0 0.0
2016-Apr-29 17:29N 34°41' E 135°11'0 0.0
2016-Apr-29 16:29N 34°41' E 135°11'0 0.0
2016-Apr-29 15:29N 34°41' E 135°11'0 0.0
2016-Apr-29 14:29N 34°41' E 135°11'0 0.0
2016-Apr-29 13:29N 34°41' E 135°11'0 0.0
2016-Apr-29 12:17N 34°41' E 135°11'3 4.3
2016-Apr-29 11:33N 34°38' E 135°11'1 0.8
2016-Apr-29 10:33N 34°37' E 135°10'4 3.3
2016-Apr-29 09:30N 34°41' E 135°11'5 5.2
2016-Apr-29 08:33N 34°37' E 135°07'5 4.6
2016-Apr-29 07:30N 34°41' E 135°11'2 2.4
2016-Apr-29 06:33N 34°39' E 135°11'2 2.3
2016-Apr-29 05:33N 34°41' E 135°11'2 2.0
2016-Apr-29 04:33N 34°39' E 135°11'2 2.0
2016-Apr-29 03:33N 34°38' E 135°09'4 0.2
2016-Apr-28 12:05N 34°41' E 135°11'4 7.0
2016-Apr-28 11:34N 34°37' E 135°09'0 0.3
2016-Apr-28 10:33N 34°38' E 135°09'3 2.9
2016-Apr-28 09:23N 34°41' E 135°11'5 6.2
2016-Apr-28 08:33N 34°37' E 135°07'5 4.7
2016-Apr-28 07:27N 34°41' E 135°11'3 2.8
2016-Apr-28 06:33N 34°38' E 135°11'3 2.5
2016-Apr-28 05:33N 34°41' E 135°11'2 2.0
2016-Apr-28 04:33N 34°39' E 135°11'2 1.9
2016-Apr-28 03:33N 34°38' E 135°09'4 3.5
2016-Apr-28 02:32N 34°41' E 135°11'0 0.0
2016-Apr-28 01:32N 34°41' E 135°11'0 0.0
2016-Apr-28 00:32N 34°41' E 135°11'0 0.0
2016-Apr-27 23:32N 34°41' E 135°11'0 0.0
2016-Apr-27 22:26N 34°41' E 135°11'0 0.0
2016-Apr-27 21:32N 34°41' E 135°11'0 0.0
2016-Apr-27 20:32N 34°41' E 135°11'0 0.0
2016-Apr-27 19:32N 34°41' E 135°11'0 0.0
2016-Apr-27 18:32N 34°41' E 135°11'0 0.0
2016-Apr-27 17:32N 34°41' E 135°11'0 0.0
2016-Apr-27 16:32N 34°41' E 135°11'0 0.0
2016-Apr-27 15:32N 34°41' E 135°11'0 0.0
2016-Apr-27 14:32N 34°41' E 135°11'0 0.0
2016-Apr-27 13:32N 34°41' E 135°11'0 0.0
2016-Apr-27 12:32N 34°41' E 135°11'4 3.8
2016-Apr-27 11:33N 34°38' E 135°09'0 0.3
2016-Apr-27 10:33N 34°38' E 135°09'4 3.5
2016-Apr-27 09:32N 34°41' E 135°11'5 5.4
2016-Apr-27 08:33N 34°37' E 135°07'5 4.8
2016-Apr-27 07:28N 34°41' E 135°11'2 2.6
2016-Apr-27 06:33N 34°38' E 135°11'2 2.3
2016-Apr-27 05:33N 34°41' E 135°11'2 2.0
2016-Apr-27 04:33N 34°39' E 135°11'2 1.9
2016-Apr-27 03:33N 34°38' E 135°09'3 2.9
2016-Apr-27 02:22N 34°41' E 135°11'0 0.0
2016-Apr-27 01:28N 34°41' E 135°11'0 0.0
2016-Apr-27 00:16N 34°41' E 135°11'0 0.0
2016-Apr-26 23:28N 34°41' E 135°11'0 0.0
2016-Apr-26 22:28N 34°41' E 135°11'0 0.0
2016-Apr-26 21:28N 34°41' E 135°11'0 0.0
2016-Apr-26 20:28N 34°41' E 135°11'0 0.0
2016-Apr-26 19:28N 34°41' E 135°11'0 0.0
2016-Apr-26 18:28N 34°41' E 135°11'0 0.0
2016-Apr-26 17:28N 34°41' E 135°11'0 0.0
2016-Apr-26 16:28N 34°41' E 135°11'0 0.0
2016-Apr-26 15:28N 34°41' E 135°11'0 0.0
2016-Apr-26 14:28N 34°41' E 135°11'0 0.0
2016-Apr-26 13:28N 34°41' E 135°11'0 0.0
2016-Apr-26 12:28N 34°41' E 135°11'3 3.5
2016-Apr-26 11:33N 34°38' E 135°10'0 0.3
2016-Apr-26 10:33N 34°38' E 135°09'3 2.9
2016-Apr-26 09:28N 34°41' E 135°11'2 2.3
2016-Apr-26 08:33N 34°39' E 135°11'2 2.1
2016-Apr-26 07:33N 34°41' E 135°11'2 2.2
2016-Apr-26 06:33N 34°39' E 135°11'2 2.2
2016-Apr-26 05:33N 34°41' E 135°11'2 1.9
2016-Apr-26 04:34N 34°39' E 135°11'2 2.0
2016-Apr-26 03:33N 34°38' E 135°09'3 3.3
2016-Apr-26 02:31N 34°41' E 135°11'3 0.2
2016-Apr-25 11:34N 34°38' E 135°10'  
Track history (hours):
 
Tides and Currents Weather Stations Pressure Air Temp Water Temp Dewpoint Dewpoint Depression Visibility Wind Speed Wind Dir Waves Ship Positions

Concerto

Last reported at 2016-May-05 11:33 UTC. Time now 2016-May-05 19:57 UTC.
Position N 34°38' E 135°10'.

Length 74 m; draft 3 m.

Type: Passenger vessel. MMSI: 431000448.

Date/timePositionNaut miles runAvg speedWind from/ knotsBaromVisibWave heightAir tempDewpointWater temp
2016-May-05 11:33N 34°38' E 135°10'1 0.7
2016-May-05 10:33N 34°38' E 135°09'3 3.1
2016-May-05 09:31N 34°41' E 135°11'5 5.5
2016-May-05 08:33N 34°37' E 135°06'5 4.9
2016-May-05 07:28N 34°41' E 135°11'3 2.9
2016-May-05 06:33N 34°38' E 135°10'3 2.6
2016-May-05 05:33N 34°41' E 135°11'2 1.9
2016-May-05 04:33N 34°39' E 135°11'1 1.5
2016-May-05 03:33N 34°38' E 135°10'3 3.0
2016-May-05 02:32N 34°41' E 135°11'0 0.0
2016-May-04 12:03N 34°41' E 135°11'3 6.4
2016-May-04 11:33N 34°38' E 135°11'1 0.6
2016-May-04 10:33N 34°38' E 135°10'3 2.7
2016-May-04 09:30N 34°41' E 135°11'4 4.1
2016-May-04 08:33N 34°37' E 135°10'4 3.9
2016-May-04 07:33N 34°41' E 135°11'3 2.6
2016-May-04 06:33N 34°38' E 135°11'3 2.6
2016-May-04 05:33N 34°41' E 135°11'1 1.4
2016-May-04 04:34N 34°39' E 135°11'1 1.3
2016-May-04 03:33N 34°39' E 135°10'2 2.3
2016-May-04 02:32N 34°41' E 135°11'0 0.0
2016-May-04 01:26N 34°41' E 135°11'0 0.0
2016-May-04 00:32N 34°41' E 135°11'0 0.0
2016-May-03 23:32N 34°41' E 135°11'0 0.0
2016-May-03 22:32N 34°41' E 135°11'0 0.0
2016-May-03 21:32N 34°41' E 135°11'0 0.0
2016-May-03 20:32N 34°41' E 135°11'0 0.0
2016-May-03 19:26N 34°41' E 135°11'0 0.0
2016-May-03 18:32N 34°41' E 135°11'0 0.0
2016-May-03 17:32N 34°41' E 135°11'0 0.0
2016-May-03 16:32N 34°41' E 135°11'0 0.0
2016-May-03 15:32N 34°41' E 135°11'0 0.0
2016-May-03 14:32N 34°41' E 135°11'0 0.0
2016-May-03 13:32N 34°41' E 135°11'0 0.0
2016-May-03 12:32N 34°41' E 135°11'1 0.7
2016-May-03 11:33N 34°40' E 135°12'0 0.2
2016-May-03 10:33N 34°40' E 135°12'1 0.7
2016-May-03 09:26N 34°41' E 135°11'1 0.7
2016-May-03 08:33N 34°40' E 135°11'1 0.6
2016-May-03 07:33N 34°41' E 135°11'3 2.6
2016-May-03 06:33N 34°38' E 135°11'3 2.6
2016-May-03 05:33N 34°41' E 135°11'1 0.8
2016-May-03 04:33N 34°40' E 135°11'1 1.5
2016-May-03 03:33N 34°39' E 135°11'2 2.1
2016-May-03 02:31N 34°41' E 135°11'0 0.0
2016-May-03 01:31N 34°41' E 135°11'0 0.0
2016-May-03 00:31N 34°41' E 135°11'0 0.0
2016-May-02 23:31N 34°41' E 135°11'0 0.0
2016-May-02 22:31N 34°41' E 135°11'0 0.0
2016-May-02 21:25N 34°41' E 135°11'0 0.0
2016-May-02 20:31N 34°41' E 135°11'0 0.0
2016-May-02 19:31N 34°41' E 135°11'0 0.0
2016-May-02 18:25N 34°41' E 135°11'0 0.0
2016-May-02 17:31N 34°41' E 135°11'0 0.0
2016-May-02 16:31N 34°41' E 135°11'0 0.0
2016-May-02 15:31N 34°41' E 135°11'0 0.0
2016-May-02 14:31N 34°41' E 135°11'0 0.0
2016-May-02 13:31N 34°41' E 135°11'0 0.0
2016-May-02 12:31N 34°41' E 135°11'3 3.3
2016-May-02 11:33N 34°38' E 135°10'1 0.7
2016-May-02 10:33N 34°38' E 135°09'3 3.0
2016-May-02 09:28N 34°41' E 135°11'5 5.6
2016-May-02 08:33N 34°37' E 135°07'5 4.7
2016-May-02 07:28N 34°41' E 135°11'3 2.8
2016-May-02 06:34N 34°38' E 135°11'3 2.5
2016-May-02 05:33N 34°41' E 135°11'2 1.6
2016-May-02 04:33N 34°39' E 135°11'2 2.1
2016-May-02 03:33N 34°38' E 135°09'3 3.1
2016-May-02 02:29N 34°41' E 135°11'0 0.0
2016-May-02 01:29N 34°41' E 135°11'0 0.0
2016-May-02 00:29N 34°41' E 135°11'0 0.0
2016-May-01 23:29N 34°41' E 135°11'0 0.0
2016-May-01 22:29N 34°41' E 135°11'0 0.0
2016-May-01 21:11N 34°41' E 135°11'0 0.0
2016-May-01 20:29N 34°41' E 135°11'0 0.0
2016-May-01 19:29N 34°41' E 135°11'0 0.0
2016-May-01 18:29N 34°41' E 135°11'0 0.0
2016-May-01 17:29N 34°41' E 135°11'0 0.0
2016-May-01 16:29N 34°41' E 135°11'0 0.0
2016-May-01 15:29N 34°41' E 135°11'0 0.0
2016-May-01 14:29N 34°41' E 135°11'0 0.0
2016-May-01 13:29N 34°41' E 135°11'0 0.0
2016-May-01 12:29N 34°41' E 135°11'3 2.8
2016-May-01 11:33N 34°38' E 135°11'1 0.9
2016-May-01 10:33N 34°38' E 135°10'3 2.6
2016-May-01 09:28N 34°41' E 135°11'5 6.0
2016-May-01 08:33N 34°37' E 135°06'5 5.4
2016-May-01 07:33N 34°41' E 135°11'2 2.3
2016-May-01 06:33N 34°38' E 135°11'2 2.3
2016-May-01 05:33N 34°41' E 135°11'2 1.8
2016-May-01 04:33N 34°39' E 135°11'2 1.9
2016-May-01 03:33N 34°38' E 135°09'3 2.9
2016-May-01 02:28N 34°41' E 135°11'0 0.0
2016-May-01 01:28N 34°41' E 135°11'0 0.0
2016-May-01 00:28N 34°41' E 135°11'0 0.0
2016-Apr-30 23:28N 34°41' E 135°11'0 0.0
2016-Apr-30 22:28N 34°41' E 135°11'0 0.0
2016-Apr-30 21:28N 34°41' E 135°11'0 0.0
2016-Apr-30 20:28N 34°41' E 135°11'0 0.0
2016-Apr-30 19:28N 34°41' E 135°11'0 0.0
2016-Apr-30 18:16N 34°41' E 135°11'0 0.0
2016-Apr-30 17:28N 34°41' E 135°11'0 0.0
2016-Apr-30 16:28N 34°41' E 135°11'0 0.0
2016-Apr-30 15:28N 34°41' E 135°11'0 0.0
2016-Apr-30 14:28N 34°41' E 135°11'0 0.0
2016-Apr-30 13:10N 34°41' E 135°11'0 0.0
2016-Apr-30 12:22N 34°41' E 135°11'3 4.2
2016-Apr-30 11:33N 34°37' E 135°11'1 0.8
2016-Apr-30 10:33N 34°38' E 135°10'3 2.9
2016-Apr-30 09:28N 34°41' E 135°11'5 5.5
2016-Apr-30 08:33N 34°37' E 135°07'5 5.0
2016-Apr-30 07:33N 34°41' E 135°11'2 2.5
2016-Apr-30 06:33N 34°38' E 135°11'2 2.5
2016-Apr-30 05:33N 34°41' E 135°11'1 1.5
2016-Apr-30 04:34N 34°39' E 135°11'2 2.3
2016-Apr-30 03:33N 34°38' E 135°09'3 2.9
2016-Apr-30 02:23N 34°41' E 135°11'0 0.0
2016-Apr-30 01:29N 34°41' E 135°11'0 0.0
2016-Apr-30 00:29N 34°41' E 135°11'0 0.0
2016-Apr-29 23:29N 34°41' E 135°11'0 0.0
2016-Apr-29 22:29N 34°41' E 135°11'0 0.0
2016-Apr-29 21:23N 34°41' E 135°11'0 0.0
2016-Apr-29 20:29N 34°41' E 135°11'0 0.0
2016-Apr-29 19:23N 34°41' E 135°11'0 0.0
2016-Apr-29 18:29N 34°41' E 135°11'0 0.0
2016-Apr-29 17:29N 34°41' E 135°11'0 0.0
2016-Apr-29 16:29N 34°41' E 135°11'0 0.0
2016-Apr-29 15:29N 34°41' E 135°11'0 0.0
2016-Apr-29 14:29N 34°41' E 135°11'0 0.0
2016-Apr-29 13:29N 34°41' E 135°11'0 0.0
2016-Apr-29 12:17N 34°41' E 135°11'3 4.3
2016-Apr-29 11:33N 34°38' E 135°11'1 0.8
2016-Apr-29 10:33N 34°37' E 135°10'4 3.3
2016-Apr-29 09:30N 34°41' E 135°11'5 5.2
2016-Apr-29 08:33N 34°37' E 135°07'5 4.6
2016-Apr-29 07:30N 34°41' E 135°11'2 2.4
2016-Apr-29 06:33N 34°39' E 135°11'2 2.3
2016-Apr-29 05:33N 34°41' E 135°11'2 2.0
2016-Apr-29 04:33N 34°39' E 135°11'2 2.0
2016-Apr-29 03:33N 34°38' E 135°09'4 0.2
2016-Apr-28 12:05N 34°41' E 135°11'4 7.0
2016-Apr-28 11:34N 34°37' E 135°09'0 0.3
2016-Apr-28 10:33N 34°38' E 135°09'3 2.9
2016-Apr-28 09:23N 34°41' E 135°11'5 6.2
2016-Apr-28 08:33N 34°37' E 135°07'5 4.7
2016-Apr-28 07:27N 34°41' E 135°11'3 2.8
2016-Apr-28 06:33N 34°38' E 135°11'3 2.5
2016-Apr-28 05:33N 34°41' E 135°11'2 2.0
2016-Apr-28 04:33N 34°39' E 135°11'2 1.9
2016-Apr-28 03:33N 34°38' E 135°09'4 3.5
2016-Apr-28 02:32N 34°41' E 135°11'0 0.0
2016-Apr-28 01:32N 34°41' E 135°11'0 0.0
2016-Apr-28 00:32N 34°41' E 135°11'0 0.0
2016-Apr-27 23:32N 34°41' E 135°11'0 0.0
2016-Apr-27 22:26N 34°41' E 135°11'0 0.0
2016-Apr-27 21:32N 34°41' E 135°11'0 0.0
2016-Apr-27 20:32N 34°41' E 135°11'0 0.0
2016-Apr-27 19:32N 34°41' E 135°11'0 0.0
2016-Apr-27 18:32N 34°41' E 135°11'0 0.0
2016-Apr-27 17:32N 34°41' E 135°11'0 0.0
2016-Apr-27 16:32N 34°41' E 135°11'0 0.0
2016-Apr-27 15:32N 34°41' E 135°11'0 0.0
2016-Apr-27 14:32N 34°41' E 135°11'0 0.0
2016-Apr-27 13:32N 34°41' E 135°11'0 0.0
2016-Apr-27 12:32N 34°41' E 135°11'4 3.8
2016-Apr-27 11:33N 34°38' E 135°09'0 0.3
2016-Apr-27 10:33N 34°38' E 135°09'4 3.5
2016-Apr-27 09:32N 34°41' E 135°11'5 5.4
2016-Apr-27 08:33N 34°37' E 135°07'5 4.8
2016-Apr-27 07:28N 34°41' E 135°11'2 2.6
2016-Apr-27 06:33N 34°38' E 135°11'2 2.3
2016-Apr-27 05:33N 34°41' E 135°11'2 2.0
2016-Apr-27 04:33N 34°39' E 135°11'2 1.9
2016-Apr-27 03:33N 34°38' E 135°09'3 2.9
2016-Apr-27 02:22N 34°41' E 135°11'0 0.0
2016-Apr-27 01:28N 34°41' E 135°11'0 0.0
2016-Apr-27 00:16N 34°41' E 135°11'0 0.0
2016-Apr-26 23:28N 34°41' E 135°11'0 0.0
2016-Apr-26 22:28N 34°41' E 135°11'0 0.0
2016-Apr-26 21:28N 34°41' E 135°11'0 0.0
2016-Apr-26 20:28N 34°41' E 135°11'0 0.0
2016-Apr-26 19:28N 34°41' E 135°11'0 0.0
2016-Apr-26 18:28N 34°41' E 135°11'0 0.0
2016-Apr-26 17:28N 34°41' E 135°11'0 0.0
2016-Apr-26 16:28N 34°41' E 135°11'0 0.0
2016-Apr-26 15:28N 34°41' E 135°11'0 0.0
2016-Apr-26 14:28N 34°41' E 135°11'0 0.0
2016-Apr-26 13:28N 34°41' E 135°11'0 0.0
2016-Apr-26 12:28N 34°41' E 135°11'3 3.5
2016-Apr-26 11:33N 34°38' E 135°10'0 0.3
2016-Apr-26 10:33N 34°38' E 135°09'3 2.9
2016-Apr-26 09:28N 34°41' E 135°11'2 2.3
2016-Apr-26 08:33N 34°39' E 135°11'2 2.1
2016-Apr-26 07:33N 34°41' E 135°11'2 2.2
2016-Apr-26 06:33N 34°39' E 135°11'2 2.2
2016-Apr-26 05:33N 34°41' E 135°11'2 1.9
2016-Apr-26 04:34N 34°39' E 135°11'2 2.0
2016-Apr-26 03:33N 34°38' E 135°09'3 3.3
2016-Apr-26 02:31N 34°41' E 135°11'3 0.2
2016-Apr-25 11:34N 34°38' E 135°10'  

Dump ship's entire track history